Time;durP1;ratioP1;P1;durP2;ratioP2;P2;SDS_P1;SDS_P2;PMS_P1;PMS_P2;Temp;Humidity;BMP_temperature;BMP_pressure;BME280_temperature;BME280_humidity;BME280_pressure;Samples;Min_cycle;Max_cycle;Signal;HPM_P1;HPM_P2
2022/04/04 00:00:44;;;;;;;6.13;3.22;;;-2.70;99.90;;;;;;5043537;28;20040;-86
2022/04/04 00:03:10;;;;;;;7.15;3.63;;;-2.90;99.90;;;;;;5030573;28;20521;-88
2022/04/04 00:05:37;;;;;;;7.63;4.22;;;-3.00;99.90;;;;;;5048296;28;20522;-87
2022/04/04 00:08:03;;;;;;;7.80;4.18;;;-3.10;99.90;;;;;;5035129;28;20489;-87
2022/04/04 00:10:29;;;;;;;6.45;3.38;;;-3.20;99.90;;;;;;5029432;28;20030;-87
2022/04/04 00:12:54;;;;;;;10.27;4.75;;;-3.20;99.90;;;;;;5024189;28;20028;-86
2022/04/04 00:15:20;;;;;;;7.28;3.88;;;-3.10;99.90;;;;;;5009409;28;20057;-87
2022/04/04 00:17:46;;;;;;;6.70;3.20;;;-3.10;99.90;;;;;;5024946;28;20026;-86
2022/04/04 00:20:12;;;;;;;8.15;4.60;;;-3.20;99.90;;;;;;5029703;28;20030;-87
2022/04/04 00:22:38;;;;;;;8.45;4.47;;;-3.30;99.90;;;;;;5043002;28;20037;-87
2022/04/04 00:25:07;;;;;;;7.85;3.97;;;-3.40;99.90;;;;;;5033466;28;20032;-86
2022/04/04 00:27:33;;;;;;;7.10;3.90;;;-3.60;99.90;;;;;;5028614;28;20030;-87
2022/04/04 00:29:59;;;;;;;12.50;4.90;;;-3.70;99.90;;;;;;5039506;28;20029;-85
2022/04/04 00:32:24;;;;;;;7.80;4.15;;;-3.80;99.90;;;;;;5045642;28;20339;-85
2022/04/04 00:34:50;;;;;;;8.90;4.43;;;-3.80;99.90;;;;;;5057879;28;20713;-85
2022/04/04 00:37:16;;;;;;;8.57;4.45;;;-3.80;99.90;;;;;;5055057;28;20061;-86
2022/04/04 00:39:41;;;;;;;8.35;3.70;;;-3.70;99.90;;;;;;5039255;28;20112;-86
2022/04/04 00:42:07;;;;;;;9.52;4.00;;;-3.70;99.90;;;;;;5050981;28;20044;-87
2022/04/04 00:44:34;;;;;;;8.70;4.20;;;-3.80;99.90;;;;;;5050822;28;20659;-87
2022/04/04 00:47:00;;;;;;;8.27;3.75;;;-3.80;99.90;;;;;;5047131;28;20025;-87
2022/04/04 00:49:25;;;;;;;8.68;4.47;;;-3.70;99.90;;;;;;5038778;28;20040;-87
2022/04/04 00:51:51;;;;;;;8.48;5.03;;;-3.70;99.90;;;;;;5026608;28;20029;-88
2022/04/04 00:54:18;;;;;;;10.73;4.20;;;-3.90;99.90;;;;;;5027464;28;20035;-87
2022/04/04 00:56:45;;;;;;;10.27;4.45;;;-4.00;99.90;;;;;;5012135;28;20183;-86
2022/04/04 00:59:15;;;;;;;12.60;5.43;;;-4.00;99.90;;;;;;5015522;28;20559;-87
2022/04/04 01:01:41;;;;;;;9.15;4.72;;;-3.80;99.90;;;;;;5023741;28;20034;-88
2022/04/04 01:04:11;;;;;;;9.65;5.22;;;-3.70;99.90;;;;;;5033354;28;20084;-86
2022/04/04 01:06:38;;;;;;;8.43;5.03;;;-3.80;99.90;;;;;;5038662;28;20033;-86
2022/04/04 01:09:04;;;;;;;12.23;5.00;;;-3.70;99.90;;;;;;5042027;28;20045;-86
2022/04/04 01:11:30;;;;;;;11.00;4.93;;;-3.70;99.90;;;;;;5037223;28;20137;-88
2022/04/04 01:13:56;;;;;;;11.00;4.93;;;-3.90;99.90;;;;;;5044954;28;20033;-85
2022/04/04 01:16:22;;;;;;;12.90;5.22;;;-3.90;99.90;;;;;;5041202;28;20037;-86
2022/04/04 01:18:47;;;;;;;9.35;4.72;;;-3.80;99.90;;;;;;5039165;28;20231;-86
2022/04/04 01:21:18;;;;;;;11.23;5.32;;;-3.90;99.90;;;;;;5050018;28;20094;-85
2022/04/04 01:23:44;;;;;;;9.35;5.28;;;-4.00;99.90;;;;;;5042681;28;20044;-85
2022/04/04 01:26:11;;;;;;;10.38;5.50;;;-4.00;99.90;;;;;;5024069;28;21221;-87
2022/04/04 01:28:38;;;;;;;11.80;5.20;;;-3.90;99.90;;;;;;5031352;28;20049;-87
2022/04/04 01:31:05;;;;;;;9.95;4.72;;;-3.80;99.90;;;;;;5034891;28;20811;-86
2022/04/04 01:33:31;;;;;;;11.52;5.18;;;-3.90;99.90;;;;;;5052927;28;20032;-85
2022/04/04 01:35:57;;;;;;;10.10;4.60;;;-3.90;99.90;;;;;;5041970;28;20042;-87
2022/04/04 01:38:24;;;;;;;8.65;5.00;;;-4.00;99.90;;;;;;5049995;28;20433;-87
2022/04/04 01:40:50;;;;;;;7.80;3.97;;;-4.20;99.90;;;;;;5044486;28;20262;-86
2022/04/04 01:43:16;;;;;;;8.57;4.47;;;-4.30;99.90;;;;;;5048709;28;20033;-88
2022/04/04 01:48:26;;;;;;;9.18;3.90;;;-4.40;99.90;;;;;;5045634;28;20449;-87
2022/04/04 01:50:51;;;;;;;10.23;4.13;;;-4.40;99.90;;;;;;5043716;28;20096;-87
2022/04/04 01:53:26;;;;;;;8.95;4.75;;;-4.20;99.90;;;;;;5021163;28;20033;-86
2022/04/04 01:55:54;;;;;;;12.23;5.00;;;-4.20;99.90;;;;;;5051911;28;20037;-86
2022/04/04 01:58:20;;;;;;;9.80;5.07;;;-4.10;99.90;;;;;;5015315;28;20057;-86
2022/04/04 02:00:46;;;;;;;9.40;5.82;;;-4.20;99.90;;;;;;5030434;28;20486;-89
2022/04/04 02:03:12;;;;;;;15.25;5.25;;;-4.40;99.90;;;;;;5035926;28;20028;-86
2022/04/04 02:05:38;;;;;;;10.73;4.88;;;-4.50;99.90;;;;;;5043757;28;20037;-86
2022/04/04 02:08:04;;;;;;;9.98;4.13;;;-4.60;99.90;;;;;;5030328;28;20361;-85
2022/04/04 02:10:30;;;;;;;10.30;5.72;;;-4.60;99.90;;;;;;5052874;28;20395;-86
2022/04/04 02:12:56;;;;;;;9.25;4.60;;;-4.70;99.90;;;;;;5034208;28;20464;-86
2022/04/04 02:15:22;;;;;;;8.85;4.63;;;-4.80;99.90;;;;;;5032999;28;20254;-86
2022/04/04 02:17:47;;;;;;;10.40;5.65;;;-4.70;99.90;;;;;;5036832;28;20365;-86
2022/04/04 02:20:14;;;;;;;10.68;4.70;;;-4.70;99.90;;;;;;5019485;28;20034;-86
2022/04/04 02:22:40;;;;;;;10.95;5.70;;;-4.80;99.90;;;;;;5033801;28;20025;-87
2022/04/04 02:25:06;;;;;;;8.73;4.43;;;-4.70;99.90;;;;;;5031648;28;20048;-86
2022/04/04 02:27:32;;;;;;;8.15;4.43;;;-4.60;99.90;;;;;;5033835;28;20029;-87
2022/04/04 02:29:57;;;;;;;9.73;5.07;;;-4.60;99.90;;;;;;5025793;28;20036;-86
2022/04/04 02:32:23;;;;;;;7.70;4.20;;;-4.50;99.90;;;;;;5029743;28;20041;-86
2022/04/04 02:34:50;;;;;;;9.27;4.45;;;-4.60;99.90;;;;;;5045778;28;20492;-87
2022/04/04 02:37:16;;;;;;;7.55;4.20;;;-4.70;99.90;;;;;;5036484;28;20229;-87
2022/04/04 02:39:42;;;;;;;9.68;4.80;;;-4.60;99.90;;;;;;5025080;28;20077;-87
2022/04/04 02:42:08;;;;;;;8.15;4.32;;;-4.70;99.90;;;;;;5045130;28;20476;-88
2022/04/04 02:44:34;;;;;;;9.38;3.97;;;-4.80;99.90;;;;;;5052778;28;20031;-87
2022/04/04 02:47:00;;;;;;;8.02;4.57;;;-4.90;99.90;;;;;;5046926;28;20028;-87
2022/04/04 02:49:28;;;;;;;10.07;5.05;;;-4.90;99.90;;;;;;5029355;28;20033;-87
2022/04/04 02:51:55;;;;;;;9.20;4.47;;;-4.80;99.90;;;;;;5022696;28;20029;-87
2022/04/04 02:54:21;;;;;;;12.18;4.95;;;-4.90;99.90;;;;;;5047369;28;20112;-87
2022/04/04 02:56:46;;;;;;;10.85;4.40;;;-4.90;99.90;;;;;;5037920;28;20075;-87
2022/04/04 02:59:12;;;;;;;10.93;4.53;;;-4.90;99.90;;;;;;5017829;28;20042;-87
2022/04/04 03:01:38;;;;;;;8.20;3.90;;;-5.00;99.90;;;;;;5041300;28;20044;-89
2022/04/04 03:04:04;;;;;;;10.32;5.40;;;-4.90;99.90;;;;;;5047793;28;20038;-87
2022/04/04 03:06:30;;;;;;;8.45;4.63;;;-4.90;99.90;;;;;;5052990;28;20472;-88
2022/04/04 03:08:56;;;;;;;10.23;5.15;;;-4.90;99.90;;;;;;5044140;28;20029;-85
2022/04/04 03:11:22;;;;;;;8.63;4.93;;;-5.00;99.90;;;;;;5044026;28;20396;-87
2022/04/04 03:13:48;;;;;;;9.10;3.90;;;-5.10;99.90;;;;;;5020164;28;20100;-86
2022/04/04 03:16:14;;;;;;;7.93;4.82;;;-5.20;99.90;;;;;;5028602;28;20089;-86
2022/04/04 03:18:40;;;;;;;7.35;4.45;;;-5.20;99.90;;;;;;5031675;28;20030;-87
2022/04/04 03:21:07;;;;;;;8.27;4.57;;;-5.20;99.90;;;;;;5023226;28;20033;-86
2022/04/04 03:23:33;;;;;;;7.70;4.25;;;-5.10;99.90;;;;;;5040571;28;20480;-87
2022/04/04 03:26:00;;;;;;;10.32;5.00;;;-5.00;99.90;;;;;;5044038;28;20033;-87
2022/04/04 03:28:26;;;;;;;12.57;3.60;;;-5.10;99.90;;;;;;5036855;28;20068;-87
2022/04/04 03:30:52;;;;;;;10.43;4.47;;;-5.10;99.90;;;;;;5030906;28;20038;-86
2022/04/04 03:33:18;;;;;;;9.88;4.95;;;-5.10;99.90;;;;;;5029846;28;20030;-86
2022/04/04 03:35:44;;;;;;;9.25;4.45;;;-5.20;99.90;;;;;;5043704;28;20036;-86
2022/04/04 03:38:13;;;;;;;9.10;4.18;;;-5.30;99.90;;;;;;5034082;28;20391;-87
2022/04/04 03:40:39;;;;;;;9.15;4.97;;;-5.30;99.90;;;;;;5038641;28;20045;-87
2022/04/04 03:43:06;;;;;;;9.63;3.20;;;-5.20;99.90;;;;;;5030873;28;20106;-86
2022/04/04 03:45:31;;;;;;;7.95;3.60;;;-5.10;99.90;;;;;;5031813;28;20410;-88
2022/04/04 03:47:58;;;;;;;7.07;4.00;;;-5.10;99.90;;;;;;5031138;28;20053;-87
2022/04/04 03:50:26;;;;;;;8.10;4.13;;;-5.30;99.90;;;;;;5039292;28;20063;-87
2022/04/04 03:52:52;;;;;;;6.28;3.35;;;-5.40;99.90;;;;;;5037414;28;20041;-86
2022/04/04 03:55:20;;;;;;;8.05;3.42;;;-5.40;99.90;;;;;;5018577;28;20481;-88
2022/04/04 03:57:48;;;;;;;9.93;3.40;;;-5.50;99.90;;;;;;5022752;28;20113;-87
2022/04/04 04:00:14;;;;;;;5.13;2.92;;;-5.50;99.90;;;;;;5025496;28;20029;-86
2022/04/04 04:02:40;;;;;;;10.27;4.72;;;-5.60;99.90;;;;;;5029885;28;20033;-88
2022/04/04 04:05:07;;;;;;;7.53;3.20;;;-5.60;99.90;;;;;;5035155;28;20022;-85
2022/04/04 04:07:34;;;;;;;10.00;4.30;;;-5.40;99.90;;;;;;5027557;28;20129;-85
2022/04/04 04:09:59;;;;;;;9.15;3.60;;;-5.50;99.90;;;;;;5040289;28;20025;-87
2022/04/04 04:12:25;;;;;;;7.90;3.72;;;-5.60;99.90;;;;;;5028948;28;20107;-88
2022/04/04 04:14:52;;;;;;;7.25;4.10;;;-5.50;99.90;;;;;;5018856;28;20061;-86
2022/04/04 04:17:22;;;;;;;6.30;2.95;;;-5.60;99.90;;;;;;5033920;28;20050;-87
2022/04/04 04:22:33;;;;;;;9.13;4.10;;;-5.70;99.90;;;;;;5037015;28;20290;-87
2022/04/04 04:25:01;;;;;;;7.40;3.30;;;-5.70;99.90;;;;;;5027119;28;20061;-88
2022/04/04 04:27:27;;;;;;;7.30;3.40;;;-5.80;99.90;;;;;;5039137;28;20097;-86
2022/04/04 04:29:53;;;;;;;9.38;4.90;;;-5.60;99.90;;;;;;5039412;28;20033;-86
2022/04/04 04:32:19;;;;;;;7.63;4.30;;;-5.60;99.90;;;;;;5037848;28;20511;-87
2022/04/04 04:34:46;;;;;;;8.10;3.70;;;-5.50;99.90;;;;;;5044567;28;20041;-86
2022/04/04 04:37:15;;;;;;;10.93;4.15;;;-5.50;99.90;;;;;;5051700;28;20116;-88
2022/04/04 04:39:41;;;;;;;9.23;4.93;;;-5.60;99.90;;;;;;5027778;28;20448;-87
2022/04/04 04:42:07;;;;;;;8.98;3.88;;;-5.60;99.90;;;;;;5055186;28;20032;-86
2022/04/04 04:44:32;;;;;;;10.85;4.55;;;-5.70;99.90;;;;;;5042686;28;20049;-86
2022/04/04 04:46:58;;;;;;;9.30;4.22;;;-5.70;99.90;;;;;;4994529;28;20022;-86
2022/04/04 04:49:26;;;;;;;8.43;4.97;;;-5.60;99.90;;;;;;5029114;28;20117;-87
2022/04/04 04:51:52;;;;;;;10.18;5.28;;;-5.50;99.90;;;;;;5036871;28;20041;-87
2022/04/04 04:54:18;;;;;;;11.05;5.45;;;-5.50;99.90;;;;;;5020783;28;20038;-87
2022/04/04 04:56:44;;;;;;;11.32;5.47;;;-5.50;99.90;;;;;;5021773;28;20029;-87
2022/04/04 04:59:09;;;;;;;11.27;5.57;;;-5.40;99.90;;;;;;5021726;28;20048;-86
2022/04/04 05:01:36;;;;;;;8.57;5.35;;;-5.50;99.90;;;;;;5027780;28;20068;-86
2022/04/04 05:04:02;;;;;;;8.50;4.97;;;-5.50;99.90;;;;;;5013262;28;20537;-87
2022/04/04 05:06:28;;;;;;;11.50;5.82;;;-5.50;99.90;;;;;;5017030;28;20032;-87
2022/04/04 05:08:59;;;;;;;11.05;5.63;;;-5.40;99.90;;;;;;5016401;28;20029;-87
2022/04/04 05:11:25;;;;;;;13.38;5.30;;;-5.40;99.90;;;;;;5028706;28;20034;-87
2022/04/04 05:13:51;;;;;;;12.25;6.32;;;-5.40;99.90;;;;;;5017220;28;20099;-85
2022/04/04 05:16:17;;;;;;;13.75;6.55;;;-5.30;99.90;;;;;;5024582;28;20483;-85
2022/04/04 05:18:44;;;;;;;10.35;6.13;;;-5.30;99.90;;;;;;5014052;28;20112;-87
2022/04/04 05:21:11;;;;;;;11.40;5.95;;;-5.20;99.90;;;;;;5039279;28;20496;-86
2022/04/04 05:23:38;;;;;;;12.02;5.50;;;-5.10;99.90;;;;;;5029796;28;20032;-87
2022/04/04 05:26:04;;;;;;;15.23;6.20;;;-5.10;99.90;;;;;;5027412;28;20022;-85
2022/04/04 05:28:30;;;;;;;12.65;5.85;;;-5.10;99.90;;;;;;5013924;28;20064;-87
2022/04/04 05:30:56;;;;;;;14.93;6.35;;;-4.90;99.90;;;;;;5037916;28;20041;-87
2022/04/04 05:33:22;;;;;;;13.90;5.90;;;-4.80;99.90;;;;;;5026681;28;20109;-86
2022/04/04 05:35:48;;;;;;;13.35;6.38;;;-4.80;99.90;;;;;;5015060;28;20060;-87
2022/04/04 05:38:14;;;;;;;12.23;5.25;;;-4.70;99.90;;;;;;5016287;28;20072;-86
2022/04/04 05:40:40;;;;;;;11.43;5.47;;;-4.60;99.90;;;;;;5012061;28;20050;-87
2022/04/04 05:43:07;;;;;;;13.43;6.15;;;-4.50;99.90;;;;;;5015416;28;20030;-86
2022/04/04 05:45:35;;;;;;;12.10;5.32;;;-4.50;99.90;;;;;;5011816;28;20026;-87
2022/04/04 05:48:02;;;;;;;11.32;5.35;;;-4.40;99.90;;;;;;5019162;28;20064;-86
2022/04/04 05:50:28;;;;;;;10.73;5.07;;;-4.30;99.90;;;;;;5029224;28;20534;-87
2022/04/04 05:52:54;;;;;;;9.63;5.15;;;-4.30;99.90;;;;;;5029457;28;20033;-87
2022/04/04 05:55:20;;;;;;;11.00;5.60;;;-4.30;99.90;;;;;;5012895;28;20034;-86
2022/04/04 05:57:46;;;;;;;12.20;6.05;;;-4.20;99.90;;;;;;5030622;28;20498;-86
2022/04/04 06:00:13;;;;;;;11.77;7.70;;;-4.20;99.90;;;;;;5045154;28;20029;-87
2022/04/04 06:02:41;;;;;;;14.75;7.30;;;-4.10;99.90;;;;;;5032342;28;20072;-87
2022/04/04 06:05:14;;;;;;;13.73;7.35;;;-4.00;99.90;;;;;;5034519;28;20468;-87
2022/04/04 06:07:41;;;;;;;12.98;6.82;;;-3.90;99.90;;;;;;5041250;28;20033;-87
2022/04/04 06:10:09;;;;;;;17.00;9.18;;;-3.80;99.90;;;;;;5037729;28;20087;-86
2022/04/04 06:12:38;;;;;;;14.10;7.15;;;-3.70;99.90;;;;;;5034925;28;20068;-87
2022/04/04 06:15:04;;;;;;;10.07;6.90;;;-3.60;99.90;;;;;;5022147;28;20100;-88
2022/04/04 06:17:30;;;;;;;12.27;7.22;;;-3.50;99.90;;;;;;5028375;28;20452;-87
2022/04/04 06:19:56;;;;;;;15.68;7.63;;;-3.40;99.90;;;;;;5028814;28;20105;-86
2022/04/04 06:22:23;;;;;;;14.93;7.15;;;-3.30;99.90;;;;;;5044927;28;20034;-87
2022/04/04 06:24:50;;;;;;;12.63;6.57;;;-3.20;99.90;;;;;;5052458;28;20025;-87
2022/04/04 06:27:16;;;;;;;13.32;6.95;;;-3.10;99.90;;;;;;5052527;28;20021;-88
2022/04/04 06:29:42;;;;;;;13.30;6.55;;;-3.10;99.90;;;;;;5037709;28;20041;-87
2022/04/04 06:32:10;;;;;;;14.05;7.68;;;-2.90;99.90;;;;;;5031254;28;20041;-87
2022/04/04 06:34:36;;;;;;;14.98;7.30;;;-2.80;99.90;;;;;;5022763;28;20029;-86
2022/04/04 06:37:04;;;;;;;11.43;6.82;;;-2.70;99.90;;;;;;5011133;28;20026;-87
2022/04/04 06:39:30;;;;;;;14.32;7.97;;;-2.60;99.90;;;;;;5047562;28;20388;-86
2022/04/04 06:41:56;;;;;;;13.80;7.57;;;-2.50;99.90;;;;;;5018063;28;20030;-86
2022/04/04 06:44:22;;;;;;;14.63;7.80;;;-2.40;99.90;;;;;;5012197;28;20473;-87
2022/04/04 06:46:47;;;;;;;13.60;6.85;;;-2.30;99.90;;;;;;5023287;28;20033;-87
2022/04/04 06:49:13;;;;;;;15.73;7.82;;;-2.20;99.90;;;;;;5030931;28;20452;-89
2022/04/04 06:51:39;;;;;;;12.90;7.28;;;-2.20;99.90;;;;;;5048061;28;20083;-88
2022/04/04 06:54:05;;;;;;;11.77;6.00;;;-2.10;99.90;;;;;;5055329;28;20033;-89
2022/04/04 06:56:37;;;;;;;14.35;6.00;;;-2.00;99.90;;;;;;5052017;28;20028;-89
2022/04/04 06:59:03;;;;;;;12.43;8.20;;;-2.00;99.90;;;;;;5051911;28;20028;-88
2022/04/04 07:01:31;;;;;;;15.52;7.85;;;-1.90;99.90;;;;;;5033277;28;20819;-88
2022/04/04 07:03:58;;;;;;;16.15;7.95;;;-1.90;99.90;;;;;;5033757;28;20113;-88
2022/04/04 07:06:25;;;;;;;22.10;9.38;;;-1.80;99.90;;;;;;5049867;28;20029;-88
2022/04/04 07:08:50;;;;;;;12.93;7.65;;;-1.70;99.90;;;;;;5053425;28;20036;-88
2022/04/04 07:11:16;;;;;;;12.45;7.72;;;-1.60;99.90;;;;;;5053341;28;20024;-88
2022/04/04 07:13:44;;;;;;;14.82;7.43;;;-1.50;99.90;;;;;;5048865;28;20064;-89
2022/04/04 07:16:10;;;;;;;13.63;7.88;;;-1.40;99.90;;;;;;5043207;28;21295;-89
2022/04/04 07:18:36;;;;;;;13.02;7.30;;;-1.30;99.90;;;;;;5041682;28;20048;-88
2022/04/04 07:21:01;;;;;;;14.10;6.95;;;-1.20;99.90;;;;;;5048973;28;20036;-89
2022/04/04 07:23:27;;;;;;;16.83;8.05;;;-1.20;99.90;;;;;;5035269;28;20037;-89
2022/04/04 07:25:53;;;;;;;14.60;7.07;;;-1.00;99.90;;;;;;5039081;28;20029;-88
2022/04/04 07:28:20;;;;;;;15.07;6.90;;;-0.80;99.90;;;;;;5021720;28;20033;-89
2022/04/04 07:30:45;;;;;;;12.20;6.47;;;-0.80;99.90;;;;;;5042850;28;20038;-89
2022/04/04 07:33:15;;;;;;;11.68;6.45;;;-0.70;99.90;;;;;;5025925;28;20044;-90
2022/04/04 07:35:41;;;;;;;11.82;6.97;;;-0.60;99.90;;;;;;5033018;28;20570;-90
2022/04/04 07:38:07;;;;;;;16.75;8.40;;;-0.60;99.90;;;;;;5028934;28;20032;-90
2022/04/04 07:40:33;;;;;;;11.23;6.10;;;-0.50;99.90;;;;;;5016345;28;20189;-91
2022/04/04 07:42:58;;;;;;;11.60;5.93;;;-0.40;99.90;;;;;;5037596;28;20033;-87
2022/04/04 07:45:24;;;;;;;7.75;4.35;;;-0.40;99.90;;;;;;5034270;28;20127;-89
2022/04/04 07:47:50;;;;;;;13.52;6.00;;;-0.30;96.20;;;;;;5040012;28;20179;-88
2022/04/04 07:50:16;;;;;;;12.07;5.10;;;-0.10;96.20;;;;;;5035218;28;20036;-88
2022/04/04 07:52:42;;;;;;;11.38;5.32;;;-0.10;94.00;;;;;;5052322;28;20500;-89
2022/04/04 07:55:09;;;;;;;8.45;5.40;;;0.00;94.10;;;;;;5030119;28;20030;-90
2022/04/04 07:57:35;;;;;;;11.32;6.47;;;0.10;95.80;;;;;;5032470;28;20110;-89
2022/04/04 08:00:01;;;;;;;12.27;6.57;;;0.30;96.10;;;;;;5021687;28;20048;-89
2022/04/04 08:02:35;;;;;;;11.15;6.03;;;0.50;97.50;;;;;;5014200;28;20037;-87
2022/04/04 08:05:04;;;;;;;12.82;5.53;;;0.60;96.00;;;;;;5034121;28;20432;-89
2022/04/04 08:07:29;;;;;;;8.45;5.40;;;0.50;95.30;;;;;;5030744;28;20021;-87
2022/04/04 08:09:55;;;;;;;10.75;5.82;;;0.40;95.40;;;;;;5016080;28;20240;-87
2022/04/04 08:12:25;;;;;;;10.98;5.43;;;0.60;96.10;;;;;;5046091;28;20030;-86
2022/04/04 08:14:51;;;;;;;10.05;6.32;;;0.70;93.60;;;;;;5033162;28;20091;-88
2022/04/04 08:17:17;;;;;;;7.53;4.97;;;0.90;95.00;;;;;;5047954;28;20075;-86
2022/04/04 08:19:43;;;;;;;10.52;5.63;;;1.10;93.20;;;;;;5045545;28;20036;-89
2022/04/04 08:22:09;;;;;;;15.73;5.88;;;1.00;91.70;;;;;;5030096;28;20034;-88
2022/04/04 08:24:34;;;;;;;11.90;5.97;;;1.00;92.80;;;;;;5015179;28;20022;-87
2022/04/04 08:27:00;;;;;;;13.15;5.75;;;1.10;91.60;;;;;;5028725;28;20385;-86
2022/04/04 08:29:26;;;;;;;7.10;4.57;;;1.20;92.70;;;;;;5042763;28;20500;-89
2022/04/04 08:31:52;;;;;;;10.55;4.95;;;1.40;91.10;;;;;;5038168;28;20041;-86
2022/04/04 08:34:18;;;;;;;8.20;4.28;;;1.30;90.60;;;;;;5028098;28;20171;-80
2022/04/04 08:36:43;;;;;;;7.28;4.15;;;1.50;86.20;;;;;;5030678;28;20022;-84
2022/04/04 08:39:10;;;;;;;9.82;4.65;;;1.60;76.30;;;;;;5014288;28;20381;-84
2022/04/04 08:41:36;;;;;;;9.80;5.13;;;1.70;79.90;;;;;;5024359;28;20378;-85
2022/04/04 08:44:03;;;;;;;8.73;4.60;;;1.70;78.60;;;;;;5043536;28;20637;-88
2022/04/04 08:46:30;;;;;;;6.70;3.42;;;1.80;78.30;;;;;;5028186;28;20142;-87
2022/04/04 08:48:58;;;;;;;6.03;3.30;;;1.70;76.70;;;;;;5041134;28;20150;-88
2022/04/04 08:51:27;;;;;;;8.48;4.22;;;1.80;72.00;;;;;;5038602;28;20125;-87
2022/04/04 08:53:54;;;;;;;7.30;3.97;;;1.80;66.30;;;;;;5012827;28;20080;-87
2022/04/04 08:56:23;;;;;;;8.50;3.90;;;2.00;69.20;;;;;;5035125;28;20083;-85
2022/04/04 08:58:49;;;;;;;8.93;4.65;;;2.20;71.00;;;;;;5019023;28;20030;-86
2022/04/04 09:01:16;;;;;;;7.00;3.60;;;2.20;68.80;;;;;;5032581;28;20041;-86
2022/04/04 09:03:41;;;;;;;7.60;4.88;;;2.20;66.60;;;;;;5049589;28;20018;-87
2022/04/04 09:06:07;;;;;;;10.90;5.00;;;2.20;66.00;;;;;;5061761;28;20133;-86
2022/04/04 09:08:44;;;;;;;8.90;4.30;;;2.30;67.30;;;;;;5038348;28;20034;-86
2022/04/04 09:11:11;;;;;;;10.18;4.05;;;2.40;66.80;;;;;;5022091;28;20034;-86
2022/04/04 09:13:37;;;;;;;8.57;4.05;;;2.40;65.80;;;;;;5037275;28;20026;-86
2022/04/04 09:16:08;;;;;;;13.70;4.88;;;2.70;68.50;;;;;;5018392;28;20106;-85
2022/04/04 09:18:36;;;;;;;10.35;5.82;;;2.70;67.00;;;;;;5011010;28;20053;-85
2022/04/04 09:21:12;;;;;;;8.48;4.50;;;2.70;65.80;;;;;;5034195;28;20460;-85
2022/04/04 09:23:49;;;;;;;7.60;3.55;;;2.70;64.40;;;;;;5048846;28;20037;-86
2022/04/04 09:26:41;;;;;;;7.35;3.47;;;2.50;63.90;;;;;;5039210;28;20029;-85
2022/04/04 09:29:19;;;;;;;8.75;4.07;;;2.60;68.10;;;;;;5043950;28;20030;-86
2022/04/04 09:32:03;;;;;;;17.45;5.50;;;2.80;66.00;;;;;;5046534;28;20215;-85
2022/04/04 09:34:28;;;;;;;7.13;3.60;;;2.60;60.90;;;;;;5036533;28;20064;-85
2022/04/04 09:36:54;;;;;;;8.65;5.07;;;2.90;64.20;;;;;;5039759;28;20064;-85
2022/04/04 09:39:20;;;;;;;9.00;4.82;;;3.00;66.80;;;;;;5033192;28;20033;-85
2022/04/04 09:41:46;;;;;;;6.93;4.07;;;3.10;65.00;;;;;;5033913;28;20226;-85
2022/04/04 09:44:12;;;;;;;6.07;3.45;;;3.50;65.40;;;;;;5034423;28;20400;-85
2022/04/04 09:46:40;;;;;;;8.18;3.58;;;3.30;61.80;;;;;;5037895;28;20085;-84
2022/04/04 09:49:13;;;;;;;7.43;4.00;;;3.30;62.20;;;;;;5040994;28;20029;-84
2022/04/04 09:51:44;;;;;;;7.20;4.28;;;3.30;62.40;;;;;;5036044;28;20607;-86
2022/04/04 09:54:17;;;;;;;8.50;4.40;;;3.30;62.10;;;;;;5030507;28;20397;-87
2022/04/04 09:56:47;;;;;;;13.15;4.55;;;3.60;66.80;;;;;;5032492;28;20063;-84
2022/04/04 09:59:17;;;;;;;10.63;5.03;;;3.70;63.90;;;;;;5048411;28;20033;-86
2022/04/04 10:01:45;;;;;;;8.93;4.90;;;3.90;63.90;;;;;;5037621;28;20531;-86
2022/04/04 10:04:12;;;;;;;8.75;4.65;;;4.20;63.30;;;;;;5044988;28;20038;-85
2022/04/04 10:06:42;;;;;;;9.52;4.35;;;4.00;63.50;;;;;;5037546;28;20488;-85
2022/04/04 10:09:09;;;;;;;9.50;5.45;;;4.10;64.10;;;;;;5044710;28;20037;-85
2022/04/04 10:11:38;;;;;;;8.70;4.65;;;4.30;66.80;;;;;;5036684;28;20030;-84
2022/04/04 10:14:04;;;;;;;8.93;4.88;;;4.10;65.20;;;;;;5041757;28;20029;-84
2022/04/04 10:16:32;;;;;;;8.55;3.85;;;4.30;66.00;;;;;;5028496;28;20072;-84
2022/04/04 10:18:58;;;;;;;11.38;4.85;;;4.50;62.00;;;;;;5064655;28;20395;-85
2022/04/04 10:21:25;;;;;;;7.70;4.38;;;4.40;68.20;;;;;;5041213;28;20026;-85
2022/04/04 10:23:56;;;;;;;9.77;4.25;;;4.10;61.50;;;;;;5046811;28;20036;-84
2022/04/04 10:26:27;;;;;;;9.43;5.43;;;4.50;63.30;;;;;;5039315;28;20029;-86
2022/04/04 10:29:05;;;;;;;;;;;4.60;63.60;;;;;;5036891;28;20047;-87
2022/04/04 10:31:45;;;;;;;9.88;5.00;;;4.70;60.00;;;;;;5030522;28;19923;-87
2022/04/04 10:34:14;;;;;;;12.03;5.50;;;5.00;61.00;;;;;;5019451;28;20377;-87
2022/04/04 10:36:55;;;;;;;10.50;5.45;;;5.00;62.20;;;;;;5021545;28;20488;-86
2022/04/04 10:39:31;;;;;;;9.43;4.95;;;4.70;63.00;;;;;;5033345;28;20120;-87
2022/04/04 10:41:57;;;;;;;10.98;6.53;;;5.00;64.60;;;;;;5040730;28;20060;-87
2022/04/04 10:44:47;;;;;;;12.43;6.07;;;5.40;63.10;;;;;;5053588;28;20499;-87
2022/04/04 10:47:24;;;;;;;11.02;5.68;;;4.80;67.10;;;;;;5024508;28;20057;-87
2022/04/04 10:49:50;;;;;;;9.18;5.80;;;4.10;62.90;;;;;;5032449;28;20057;-86
2022/04/04 10:52:22;;;;;;;10.90;5.22;;;4.50;64.80;;;;;;5031880;28;20037;-87
2022/04/04 10:54:48;;;;;;;12.65;5.50;;;5.20;63.30;;;;;;5051999;28;20811;-87
2022/04/04 10:57:18;;;;;;;6.45;4.82;;;5.40;61.10;;;;;;5034910;28;20036;-87
2022/04/04 10:59:48;;;;;;;8.35;5.55;;;5.80;61.90;;;;;;5044411;28;20068;-88
2022/04/04 11:02:18;;;;;;;9.45;5.15;;;5.60;57.70;;;;;;5038351;28;20757;-88
2022/04/04 11:07:38;;;;;;;12.18;6.63;;;6.30;56.00;;;;;;5023980;28;20459;-85
2022/04/04 11:10:37;;;;;;;9.90;5.72;;;7.00;54.70;;;;;;5026600;28;20052;-86
2022/04/04 11:13:09;;;;;;;9.15;5.95;;;7.30;56.20;;;;;;5032860;28;20164;-86
2022/04/04 11:15:53;;;;;;;13.13;7.43;;;7.00;53.60;;;;;;5040510;28;20041;-85
2022/04/04 11:18:19;;;;;;;12.00;6.63;;;7.40;55.70;;;;;;5031439;28;20044;-87
2022/04/04 11:20:53;;;;;;;12.80;7.15;;;6.10;53.80;;;;;;5049108;28;20108;-85
2022/04/04 11:23:20;;;;;;;10.35;6.40;;;6.70;54.10;;;;;;5039044;28;20025;-86
2022/04/04 11:25:49;;;;;;;12.18;6.50;;;6.80;57.00;;;;;;5031023;28;20095;-86
2022/04/04 11:28:17;;;;;;;11.13;6.90;;;7.60;53.40;;;;;;5029094;28;20151;-87
2022/04/04 11:30:43;;;;;;;13.82;7.43;;;8.40;53.70;;;;;;5048757;28;20097;-86
2022/04/04 11:33:17;;;;;;;10.50;6.80;;;8.40;53.60;;;;;;5033536;28;20056;-87
2022/04/04 11:35:44;;;;;;;12.18;7.57;;;8.70;51.50;;;;;;5025604;28;20115;-86
2022/04/04 11:38:12;;;;;;;10.80;7.00;;;8.10;53.80;;;;;;5046748;28;20396;-87
2022/04/04 11:40:44;;;;;;;11.30;7.15;;;8.30;53.80;;;;;;5030504;28;20561;-86
2022/04/04 11:43:15;;;;;;;13.35;8.00;;;6.90;55.70;;;;;;5033788;28;20132;-87
2022/04/04 11:45:43;;;;;;;10.35;7.25;;;7.20;55.30;;;;;;5036364;28;20040;-86
2022/04/04 11:48:14;;;;;;;8.48;6.25;;;8.00;50.10;;;;;;5026869;28;20499;-87
2022/04/04 11:50:42;;;;;;;15.30;8.20;;;6.40;52.20;;;;;;5031582;28;20028;-87
2022/04/04 11:53:13;;;;;;;12.05;7.63;;;7.20;55.10;;;;;;5037491;28;20052;-87
2022/04/04 11:55:40;;;;;;;;;;;8.60;52.30;;;;;;5030548;28;20029;-88
2022/04/04 11:58:27;;;;;;;12.82;7.07;;;8.30;50.60;;;;;;5029237;28;20319;-88
2022/04/04 12:01:00;;;;;;;11.65;7.32;;;8.60;52.00;;;;;;5030346;28;20048;-88
2022/04/04 12:03:27;;;;;;;16.30;7.93;;;8.20;49.90;;;;;;5014491;28;20496;-89
2022/04/04 12:05:54;;;;;;;10.80;6.63;;;8.20;50.50;;;;;;5045551;28;20021;-88
2022/04/04 12:08:25;;;;;;;12.10;7.60;;;7.60;53.20;;;;;;5015823;28;20083;-88
2022/04/04 12:10:51;;;;;;;12.85;8.20;;;7.60;52.60;;;;;;5038983;28;20052;-89
2022/04/04 12:13:22;;;;;;;11.93;8.00;;;7.70;56.60;;;;;;5027543;28;20464;-88
2022/04/04 12:15:54;;;;;;;12.65;7.07;;;8.00;55.50;;;;;;5047753;28;20296;-88
2022/04/04 12:18:25;;;;;;;11.65;7.18;;;8.60;54.30;;;;;;5051859;28;20091;-88
2022/04/04 12:20:59;;;;;;;11.73;7.60;;;9.10;51.60;;;;;;5050944;28;20040;-88
2022/04/04 12:26:12;;;;;;;13.60;8.15;;;9.90;51.70;;;;;;5038509;28;20135;-88
2022/04/04 12:28:49;;;;;;;12.63;8.52;;;9.20;49.80;;;;;;5043144;28;20064;-91
2022/04/04 12:31:20;;;;;;;12.93;7.95;;;8.80;48.30;;;;;;5032891;28;20048;-88
2022/04/04 12:34:02;;;;;;;13.75;8.15;;;8.70;51.00;;;;;;5016451;28;20473;-88
2022/04/04 12:36:35;;;;;;;14.98;8.73;;;8.90;50.00;;;;;;5018283;28;20075;-88
2022/04/04 12:39:01;;;;;;;12.38;8.32;;;7.80;50.30;;;;;;5027313;28;20369;-87
2022/04/04 12:41:27;;;;;;;13.27;8.27;;;7.90;50.10;;;;;;5030400;28;20441;-88
2022/04/04 12:44:02;;;;;;;12.68;7.35;;;9.50;50.00;;;;;;5022417;28;20034;-88
2022/04/04 12:46:32;;;;;;;13.57;7.95;;;9.70;47.20;;;;;;5022852;28;20083;-86
2022/04/04 12:49:19;;;;;;;14.00;8.07;;;8.90;48.80;;;;;;5029105;28;20175;-86
2022/04/04 12:52:00;;;;;;;12.25;7.63;;;9.40;51.20;;;;;;5030792;28;20057;-87
2022/04/04 12:54:26;;;;;;;11.00;7.63;;;8.90;46.00;;;;;;5026985;28;20044;-87
2022/04/04 12:56:53;;;;;;;12.10;7.93;;;8.30;51.50;;;;;;5041786;28;20086;-87
2022/04/04 12:59:19;;;;;;;12.60;8.13;;;9.20;52.20;;;;;;5031342;28;20112;-86